sensor_id;sensor_type;location;lat;lon;timestamp;P1;durP1;ratioP1;P2;durP2;ratioP2
68284;SDS011;55114;52.052;5.238;2022-11-23T00:01:52;21.30;;;7.80;;
68284;SDS011;55114;52.052;5.238;2022-11-23T00:04:19;20.58;;;7.93;;
68284;SDS011;55114;52.052;5.238;2022-11-23T00:06:47;21.02;;;8.77;;
68284;SDS011;55114;52.052;5.238;2022-11-23T00:09:14;21.77;;;8.67;;
68284;SDS011;55114;52.052;5.238;2022-11-23T00:11:41;19.85;;;7.95;;
68284;SDS011;55114;52.052;5.238;2022-11-23T00:14:09;20.60;;;7.82;;
68284;SDS011;55114;52.052;5.238;2022-11-23T00:16:36;25.33;;;8.35;;
68284;SDS011;55114;52.052;5.238;2022-11-23T00:19:21;22.08;;;7.97;;
68284;SDS011;55114;52.052;5.238;2022-11-23T00:21:48;23.20;;;9.30;;
68284;SDS011;55114;52.052;5.238;2022-11-23T00:24:26;22.08;;;8.05;;
68284;SDS011;55114;52.052;5.238;2022-11-23T00:26:53;23.55;;;8.95;;
68284;SDS011;55114;52.052;5.238;2022-11-23T00:29:21;22.27;;;8.50;;
68284;SDS011;55114;52.052;5.238;2022-11-23T00:31:48;24.15;;;7.78;;
68284;SDS011;55114;52.052;5.238;2022-11-23T00:34:15;20.80;;;8.00;;
68284;SDS011;55114;52.052;5.238;2022-11-23T00:36:42;20.30;;;7.90;;
68284;SDS011;55114;52.052;5.238;2022-11-23T00:39:17;21.15;;;8.82;;
68284;SDS011;55114;52.052;5.238;2022-11-23T00:41:45;20.27;;;8.02;;
68284;SDS011;55114;52.052;5.238;2022-11-23T00:44:13;22.48;;;8.95;;
68284;SDS011;55114;52.052;5.238;2022-11-23T00:46:41;17.80;;;7.63;;
68284;SDS011;55114;52.052;5.238;2022-11-23T00:49:08;22.52;;;8.55;;
68284;SDS011;55114;52.052;5.238;2022-11-23T00:51:36;23.05;;;7.85;;
68284;SDS011;55114;52.052;5.238;2022-11-23T00:54:05;25.25;;;7.75;;
68284;SDS011;55114;52.052;5.238;2022-11-23T00:56:35;19.83;;;8.23;;
68284;SDS011;55114;52.052;5.238;2022-11-23T00:59:03;22.20;;;7.67;;
68284;SDS011;55114;52.052;5.238;2022-11-23T01:01:31;19.98;;;7.53;;
68284;SDS011;55114;52.052;5.238;2022-11-23T01:06:36;24.15;;;8.27;;
68284;SDS011;55114;52.052;5.238;2022-11-23T01:09:05;19.83;;;8.02;;
68284;SDS011;55114;52.052;5.238;2022-11-23T01:11:33;22.80;;;8.33;;
68284;SDS011;55114;52.052;5.238;2022-11-23T01:14:00;19.40;;;8.25;;
68284;SDS011;55114;52.052;5.238;2022-11-23T01:16:29;21.60;;;8.38;;
68284;SDS011;55114;52.052;5.238;2022-11-23T01:18:58;20.35;;;7.72;;
68284;SDS011;55114;52.052;5.238;2022-11-23T01:21:27;24.42;;;9.00;;
68284;SDS011;55114;52.052;5.238;2022-11-23T01:23:54;20.50;;;7.30;;
68284;SDS011;55114;52.052;5.238;2022-11-23T01:26:22;21.10;;;7.95;;
68284;SDS011;55114;52.052;5.238;2022-11-23T01:28:50;20.33;;;7.72;;
68284;SDS011;55114;52.052;5.238;2022-11-23T01:31:19;21.77;;;8.13;;
68284;SDS011;55114;52.052;5.238;2022-11-23T01:33:47;22.13;;;7.75;;
68284;SDS011;55114;52.052;5.238;2022-11-23T01:36:20;19.00;;;7.00;;
68284;SDS011;55114;52.052;5.238;2022-11-23T01:38:47;19.02;;;7.22;;
68284;SDS011;55114;52.052;5.238;2022-11-23T01:41:16;21.75;;;7.70;;
68284;SDS011;55114;52.052;5.238;2022-11-23T01:43:43;25.70;;;7.25;;
68284;SDS011;55114;52.052;5.238;2022-11-23T01:46:11;16.55;;;7.18;;
68284;SDS011;55114;52.052;5.238;2022-11-23T01:51:07;18.77;;;6.78;;
68284;SDS011;55114;52.052;5.238;2022-11-23T01:53:36;17.85;;;7.13;;
68284;SDS011;55114;52.052;5.238;2022-11-23T01:56:04;16.98;;;7.13;;
68284;SDS011;55114;52.052;5.238;2022-11-23T01:58:34;15.93;;;6.65;;
68284;SDS011;55114;52.052;5.238;2022-11-23T02:01:06;18.27;;;6.37;;
68284;SDS011;55114;52.052;5.238;2022-11-23T02:03:34;18.67;;;6.38;;
68284;SDS011;55114;52.052;5.238;2022-11-23T02:06:04;14.80;;;6.25;;
68284;SDS011;55114;52.052;5.238;2022-11-23T02:08:33;21.98;;;6.72;;
68284;SDS011;55114;52.052;5.238;2022-11-23T02:11:01;17.77;;;6.75;;
68284;SDS011;55114;52.052;5.238;2022-11-23T02:13:29;14.83;;;5.73;;
68284;SDS011;55114;52.052;5.238;2022-11-23T02:15:57;19.83;;;5.90;;
68284;SDS011;55114;52.052;5.238;2022-11-23T02:18:25;18.25;;;6.35;;
68284;SDS011;55114;52.052;5.238;2022-11-23T02:20:55;16.48;;;6.22;;
68284;SDS011;55114;52.052;5.238;2022-11-23T02:26:05;19.43;;;5.30;;
68284;SDS011;55114;52.052;5.238;2022-11-23T02:28:38;13.73;;;4.95;;
68284;SDS011;55114;52.052;5.238;2022-11-23T02:31:07;21.17;;;5.45;;
68284;SDS011;55114;52.052;5.238;2022-11-23T02:33:52;16.55;;;5.15;;
68284;SDS011;55114;52.052;5.238;2022-11-23T02:36:41;14.63;;;5.00;;
68284;SDS011;55114;52.052;5.238;2022-11-23T02:41:45;14.82;;;5.00;;
68284;SDS011;55114;52.052;5.238;2022-11-23T02:44:20;13.23;;;4.55;;
68284;SDS011;55114;52.052;5.238;2022-11-23T02:46:51;13.35;;;5.25;;
68284;SDS011;55114;52.052;5.238;2022-11-23T02:49:18;15.95;;;5.10;;
68284;SDS011;55114;52.052;5.238;2022-11-23T02:51:46;15.60;;;4.93;;
68284;SDS011;55114;52.052;5.238;2022-11-23T02:54:13;13.75;;;4.78;;
68284;SDS011;55114;52.052;5.238;2022-11-23T02:56:40;16.95;;;5.82;;
68284;SDS011;55114;52.052;5.238;2022-11-23T02:59:07;17.23;;;5.18;;
68284;SDS011;55114;52.052;5.238;2022-11-23T03:01:35;14.43;;;5.07;;
68284;SDS011;55114;52.052;5.238;2022-11-23T03:04:11;14.33;;;4.87;;
68284;SDS011;55114;52.052;5.238;2022-11-23T03:06:39;13.40;;;5.10;;
68284;SDS011;55114;52.052;5.238;2022-11-23T03:09:06;17.15;;;5.35;;
68284;SDS011;55114;52.052;5.238;2022-11-23T03:11:34;16.40;;;5.15;;
68284;SDS011;55114;52.052;5.238;2022-11-23T03:14:02;17.05;;;5.47;;
68284;SDS011;55114;52.052;5.238;2022-11-23T03:16:29;16.73;;;5.60;;
68284;SDS011;55114;52.052;5.238;2022-11-23T03:18:56;12.45;;;4.97;;
68284;SDS011;55114;52.052;5.238;2022-11-23T03:21:24;15.75;;;5.00;;
68284;SDS011;55114;52.052;5.238;2022-11-23T03:23:51;13.93;;;5.40;;
68284;SDS011;55114;52.052;5.238;2022-11-23T03:26:19;13.30;;;5.20;;
68284;SDS011;55114;52.052;5.238;2022-11-23T03:28:46;17.27;;;5.23;;
68284;SDS011;55114;52.052;5.238;2022-11-23T03:31:14;14.05;;;5.30;;
68284;SDS011;55114;52.052;5.238;2022-11-23T03:33:41;14.15;;;5.38;;
68284;SDS011;55114;52.052;5.238;2022-11-23T03:36:10;13.70;;;5.10;;
68284;SDS011;55114;52.052;5.238;2022-11-23T03:38:37;12.70;;;5.28;;
68284;SDS011;55114;52.052;5.238;2022-11-23T03:41:04;14.07;;;5.23;;
68284;SDS011;55114;52.052;5.238;2022-11-23T03:43:31;13.18;;;4.70;;
68284;SDS011;55114;52.052;5.238;2022-11-23T03:45:59;16.13;;;5.60;;
68284;SDS011;55114;52.052;5.238;2022-11-23T03:48:26;12.85;;;4.88;;
68284;SDS011;55114;52.052;5.238;2022-11-23T03:50:53;16.73;;;5.15;;
68284;SDS011;55114;52.052;5.238;2022-11-23T03:53:21;16.20;;;5.03;;
68284;SDS011;55114;52.052;5.238;2022-11-23T03:55:48;16.42;;;5.13;;
68284;SDS011;55114;52.052;5.238;2022-11-23T03:58:16;13.45;;;5.10;;
68284;SDS011;55114;52.052;5.238;2022-11-23T04:00:44;13.73;;;5.13;;
68284;SDS011;55114;52.052;5.238;2022-11-23T04:03:11;13.15;;;4.63;;
68284;SDS011;55114;52.052;5.238;2022-11-23T04:05:38;12.30;;;4.00;;
68284;SDS011;55114;52.052;5.238;2022-11-23T04:08:06;13.40;;;4.38;;
68284;SDS011;55114;52.052;5.238;2022-11-23T04:10:34;13.63;;;4.15;;
68284;SDS011;55114;52.052;5.238;2022-11-23T04:13:01;13.00;;;4.20;;
68284;SDS011;55114;52.052;5.238;2022-11-23T04:15:29;11.25;;;4.10;;
68284;SDS011;55114;52.052;5.238;2022-11-23T04:17:56;11.63;;;3.90;;
68284;SDS011;55114;52.052;5.238;2022-11-23T04:20:24;10.55;;;3.55;;
68284;SDS011;55114;52.052;5.238;2022-11-23T04:22:51;9.82;;;3.60;;
68284;SDS011;55114;52.052;5.238;2022-11-23T04:25:19;9.43;;;3.80;;
68284;SDS011;55114;52.052;5.238;2022-11-23T04:27:46;13.52;;;4.07;;
68284;SDS011;55114;52.052;5.238;2022-11-23T04:30:14;14.80;;;4.30;;
68284;SDS011;55114;52.052;5.238;2022-11-23T04:32:44;12.93;;;3.97;;
68284;SDS011;55114;52.052;5.238;2022-11-23T04:35:11;11.75;;;4.30;;
68284;SDS011;55114;52.052;5.238;2022-11-23T04:37:38;11.63;;;3.92;;
68284;SDS011;55114;52.052;5.238;2022-11-23T04:40:05;13.50;;;4.07;;
68284;SDS011;55114;52.052;5.238;2022-11-23T04:42:33;13.50;;;4.37;;
68284;SDS011;55114;52.052;5.238;2022-11-23T04:45:00;11.65;;;4.10;;
68284;SDS011;55114;52.052;5.238;2022-11-23T04:47:28;11.82;;;4.20;;
68284;SDS011;55114;52.052;5.238;2022-11-23T04:49:55;13.75;;;5.00;;
68284;SDS011;55114;52.052;5.238;2022-11-23T04:52:22;16.27;;;5.05;;
68284;SDS011;55114;52.052;5.238;2022-11-23T04:54:50;11.07;;;4.40;;
68284;SDS011;55114;52.052;5.238;2022-11-23T04:57:17;16.83;;;4.50;;
68284;SDS011;55114;52.052;5.238;2022-11-23T04:59:44;11.80;;;4.10;;
68284;SDS011;55114;52.052;5.238;2022-11-23T05:02:12;16.35;;;4.13;;
68284;SDS011;55114;52.052;5.238;2022-11-23T05:04:39;9.30;;;4.10;;
68284;SDS011;55114;52.052;5.238;2022-11-23T05:07:06;12.83;;;4.00;;
68284;SDS011;55114;52.052;5.238;2022-11-23T05:09:34;10.95;;;3.83;;
68284;SDS011;55114;52.052;5.238;2022-11-23T05:12:02;12.73;;;3.72;;
68284;SDS011;55114;52.052;5.238;2022-11-23T05:14:29;9.45;;;3.33;;
68284;SDS011;55114;52.052;5.238;2022-11-23T05:16:57;10.88;;;3.20;;
68284;SDS011;55114;52.052;5.238;2022-11-23T05:19:24;11.90;;;3.63;;
68284;SDS011;55114;52.052;5.238;2022-11-23T05:21:52;11.65;;;3.03;;
68284;SDS011;55114;52.052;5.238;2022-11-23T05:24:19;10.05;;;3.17;;
68284;SDS011;55114;52.052;5.238;2022-11-23T05:26:47;9.20;;;2.90;;
68284;SDS011;55114;52.052;5.238;2022-11-23T05:29:21;11.48;;;2.80;;
68284;SDS011;55114;52.052;5.238;2022-11-23T05:31:58;11.20;;;2.70;;
68284;SDS011;55114;52.052;5.238;2022-11-23T05:34:25;12.77;;;2.95;;
68284;SDS011;55114;52.052;5.238;2022-11-23T05:36:53;9.52;;;3.03;;
68284;SDS011;55114;52.052;5.238;2022-11-23T05:39:20;10.35;;;3.55;;
68284;SDS011;55114;52.052;5.238;2022-11-23T05:41:48;15.77;;;3.28;;
68284;SDS011;55114;52.052;5.238;2022-11-23T05:44:15;11.63;;;3.00;;
68284;SDS011;55114;52.052;5.238;2022-11-23T05:46:42;13.30;;;3.00;;
68284;SDS011;55114;52.052;5.238;2022-11-23T05:49:09;11.10;;;3.42;;
68284;SDS011;55114;52.052;5.238;2022-11-23T05:51:36;15.10;;;3.42;;
68284;SDS011;55114;52.052;5.238;2022-11-23T05:54:03;11.98;;;3.10;;
68284;SDS011;55114;52.052;5.238;2022-11-23T05:56:31;8.90;;;2.60;;
68284;SDS011;55114;52.052;5.238;2022-11-23T05:59:05;12.25;;;3.45;;
68284;SDS011;55114;52.052;5.238;2022-11-23T06:01:33;11.85;;;3.20;;
68284;SDS011;55114;52.052;5.238;2022-11-23T06:04:01;9.43;;;3.13;;
68284;SDS011;55114;52.052;5.238;2022-11-23T06:06:28;14.38;;;3.17;;
68284;SDS011;55114;52.052;5.238;2022-11-23T06:09:01;10.17;;;3.50;;
68284;SDS011;55114;52.052;5.238;2022-11-23T06:11:29;13.80;;;3.35;;
68284;SDS011;55114;52.052;5.238;2022-11-23T06:13:57;10.63;;;3.05;;
68284;SDS011;55114;52.052;5.238;2022-11-23T06:16:24;9.98;;;3.17;;
68284;SDS011;55114;52.052;5.238;2022-11-23T06:18:51;9.98;;;3.10;;
68284;SDS011;55114;52.052;5.238;2022-11-23T06:21:18;11.43;;;2.93;;
68284;SDS011;55114;52.052;5.238;2022-11-23T06:23:46;9.82;;;3.13;;
68284;SDS011;55114;52.052;5.238;2022-11-23T06:26:13;9.30;;;2.50;;
68284;SDS011;55114;52.052;5.238;2022-11-23T06:28:41;9.27;;;2.40;;
68284;SDS011;55114;52.052;5.238;2022-11-23T06:31:08;11.90;;;2.40;;
68284;SDS011;55114;52.052;5.238;2022-11-23T06:33:35;7.63;;;2.10;;
68284;SDS011;55114;52.052;5.238;2022-11-23T06:36:03;8.00;;;2.35;;
68284;SDS011;55114;52.052;5.238;2022-11-23T06:38:32;13.32;;;2.10;;
68284;SDS011;55114;52.052;5.238;2022-11-23T06:41:00;8.85;;;2.08;;
68284;SDS011;55114;52.052;5.238;2022-11-23T06:43:27;11.70;;;2.10;;
68284;SDS011;55114;52.052;5.238;2022-11-23T06:45:54;8.83;;;1.90;;
68284;SDS011;55114;52.052;5.238;2022-11-23T06:48:22;10.70;;;1.80;;
68284;SDS011;55114;52.052;5.238;2022-11-23T06:50:49;11.55;;;1.90;;
68284;SDS011;55114;52.052;5.238;2022-11-23T06:53:16;10.90;;;1.85;;
68284;SDS011;55114;52.052;5.238;2022-11-23T06:55:43;12.32;;;1.85;;
68284;SDS011;55114;52.052;5.238;2022-11-23T06:58:10;9.40;;;1.53;;
68284;SDS011;55114;52.052;5.238;2022-11-23T07:00:38;14.15;;;1.52;;
68284;SDS011;55114;52.052;5.238;2022-11-23T07:03:05;9.05;;;1.58;;
68284;SDS011;55114;52.052;5.238;2022-11-23T07:05:32;9.18;;;1.98;;
68284;SDS011;55114;52.052;5.238;2022-11-23T07:08:00;9.98;;;1.50;;
68284;SDS011;55114;52.052;5.238;2022-11-23T07:10:27;9.80;;;1.70;;
68284;SDS011;55114;52.052;5.238;2022-11-23T07:12:55;7.22;;;1.60;;
68284;SDS011;55114;52.052;5.238;2022-11-23T07:15:30;8.73;;;1.70;;
68284;SDS011;55114;52.052;5.238;2022-11-23T07:18:00;13.25;;;2.03;;
68284;SDS011;55114;52.052;5.238;2022-11-23T07:20:28;10.07;;;1.70;;
68284;SDS011;55114;52.052;5.238;2022-11-23T07:23:00;12.10;;;2.40;;
68284;SDS011;55114;52.052;5.238;2022-11-23T07:25:28;8.32;;;1.95;;
68284;SDS011;55114;52.052;5.238;2022-11-23T07:27:55;13.70;;;2.30;;
68284;SDS011;55114;52.052;5.238;2022-11-23T07:30:23;11.77;;;2.05;;
68284;SDS011;55114;52.052;5.238;2022-11-23T07:33:00;8.73;;;2.08;;
68284;SDS011;55114;52.052;5.238;2022-11-23T07:35:28;9.97;;;1.97;;
68284;SDS011;55114;52.052;5.238;2022-11-23T07:37:55;11.55;;;1.67;;
68284;SDS011;55114;52.052;5.238;2022-11-23T07:40:22;11.30;;;2.13;;
68284;SDS011;55114;52.052;5.238;2022-11-23T07:42:50;15.80;;;2.60;;
68284;SDS011;55114;52.052;5.238;2022-11-23T07:45:17;11.75;;;1.90;;
68284;SDS011;55114;52.052;5.238;2022-11-23T07:47:44;12.80;;;1.93;;
68284;SDS011;55114;52.052;5.238;2022-11-23T07:50:12;12.10;;;1.88;;
68284;SDS011;55114;52.052;5.238;2022-11-23T07:52:39;9.88;;;1.60;;
68284;SDS011;55114;52.052;5.238;2022-11-23T07:55:07;10.98;;;1.60;;
68284;SDS011;55114;52.052;5.238;2022-11-23T07:57:34;10.98;;;1.67;;
68284;SDS011;55114;52.052;5.238;2022-11-23T08:00:02;10.80;;;1.90;;
68284;SDS011;55114;52.052;5.238;2022-11-23T08:02:30;8.43;;;1.80;;
68284;SDS011;55114;52.052;5.238;2022-11-23T08:04:58;8.88;;;1.63;;
68284;SDS011;55114;52.052;5.238;2022-11-23T08:07:25;12.30;;;1.80;;
68284;SDS011;55114;52.052;5.238;2022-11-23T08:09:52;9.30;;;1.63;;
68284;SDS011;55114;52.052;5.238;2022-11-23T08:12:20;10.20;;;2.10;;
68284;SDS011;55114;52.052;5.238;2022-11-23T08:14:47;13.50;;;1.88;;
68284;SDS011;55114;52.052;5.238;2022-11-23T08:17:15;15.80;;;1.60;;
68284;SDS011;55114;52.052;5.238;2022-11-23T08:19:43;10.75;;;1.90;;
68284;SDS011;55114;52.052;5.238;2022-11-23T08:22:10;12.70;;;1.90;;
68284;SDS011;55114;52.052;5.238;2022-11-23T08:24:41;10.50;;;1.80;;
68284;SDS011;55114;52.052;5.238;2022-11-23T08:27:08;12.88;;;1.80;;
68284;SDS011;55114;52.052;5.238;2022-11-23T08:29:35;12.38;;;1.65;;
68284;SDS011;55114;52.052;5.238;2022-11-23T08:32:02;14.05;;;2.85;;
68284;SDS011;55114;52.052;5.238;2022-11-23T08:34:30;10.57;;;1.60;;
68284;SDS011;55114;52.052;5.238;2022-11-23T08:36:57;14.07;;;1.73;;
68284;SDS011;55114;52.052;5.238;2022-11-23T08:39:24;10.95;;;1.63;;
68284;SDS011;55114;52.052;5.238;2022-11-23T08:41:51;11.70;;;1.52;;
68284;SDS011;55114;52.052;5.238;2022-11-23T08:44:18;7.15;;;1.63;;
68284;SDS011;55114;52.052;5.238;2022-11-23T08:46:46;7.20;;;1.50;;
68284;SDS011;55114;52.052;5.238;2022-11-23T08:49:13;8.97;;;1.30;;
68284;SDS011;55114;52.052;5.238;2022-11-23T08:51:40;10.23;;;1.55;;
68284;SDS011;55114;52.052;5.238;2022-11-23T08:54:15;10.57;;;1.63;;
68284;SDS011;55114;52.052;5.238;2022-11-23T08:56:42;11.68;;;1.90;;
68284;SDS011;55114;52.052;5.238;2022-11-23T08:59:14;11.40;;;1.67;;
68284;SDS011;55114;52.052;5.238;2022-11-23T09:01:42;16.00;;;1.77;;
68284;SDS011;55114;52.052;5.238;2022-11-23T09:04:10;10.15;;;2.22;;
68284;SDS011;55114;52.052;5.238;2022-11-23T09:06:45;7.72;;;1.48;;
68284;SDS011;55114;52.052;5.238;2022-11-23T09:09:22;8.32;;;1.65;;
68284;SDS011;55114;52.052;5.238;2022-11-23T09:11:49;11.98;;;1.58;;
68284;SDS011;55114;52.052;5.238;2022-11-23T09:14:18;12.23;;;1.70;;
68284;SDS011;55114;52.052;5.238;2022-11-23T09:16:47;8.65;;;1.70;;
68284;SDS011;55114;52.052;5.238;2022-11-23T09:19:14;8.43;;;1.48;;
68284;SDS011;55114;52.052;5.238;2022-11-23T09:21:42;9.20;;;1.50;;
68284;SDS011;55114;52.052;5.238;2022-11-23T09:24:12;10.80;;;1.80;;
68284;SDS011;55114;52.052;5.238;2022-11-23T09:26:41;11.30;;;1.67;;
68284;SDS011;55114;52.052;5.238;2022-11-23T09:29:09;9.63;;;1.40;;
68284;SDS011;55114;52.052;5.238;2022-11-23T09:31:36;8.68;;;1.55;;
68284;SDS011;55114;52.052;5.238;2022-11-23T09:34:04;10.07;;;2.20;;
68284;SDS011;55114;52.052;5.238;2022-11-23T09:36:32;6.43;;;1.27;;
68284;SDS011;55114;52.052;5.238;2022-11-23T09:38:59;7.73;;;1.40;;
68284;SDS011;55114;52.052;5.238;2022-11-23T09:49:13;13.82;;;1.92;;
68284;SDS011;55114;52.052;5.238;2022-11-23T09:51:41;15.30;;;1.40;;
68284;SDS011;55114;52.052;5.238;2022-11-23T09:54:27;12.25;;;1.67;;
68284;SDS011;55114;52.052;5.238;2022-11-23T10:02:18;13.32;;;1.75;;
68284;SDS011;55114;52.052;5.238;2022-11-23T10:04:46;10.40;;;1.57;;
68284;SDS011;55114;52.052;5.238;2022-11-23T10:12:37;6.72;;;1.55;;
68284;SDS011;55114;52.052;5.238;2022-11-23T10:15:16;12.00;;;2.10;;
68284;SDS011;55114;52.052;5.238;2022-11-23T10:22:58;9.48;;;1.73;;
68284;SDS011;55114;52.052;5.238;2022-11-23T10:25:28;12.73;;;1.58;;
68284;SDS011;55114;52.052;5.238;2022-11-23T10:28:13;10.60;;;1.52;;
68284;SDS011;55114;52.052;5.238;2022-11-23T10:30:41;8.90;;;1.63;;
68284;SDS011;55114;52.052;5.238;2022-11-23T10:33:18;8.00;;;1.40;;
68284;SDS011;55114;52.052;5.238;2022-11-23T10:35:49;10.52;;;1.73;;
68284;SDS011;55114;52.052;5.238;2022-11-23T10:38:17;10.00;;;1.45;;
68284;SDS011;55114;52.052;5.238;2022-11-23T10:43:25;7.57;;;1.10;;
68284;SDS011;55114;52.052;5.238;2022-11-23T10:48:42;8.65;;;1.45;;
68284;SDS011;55114;52.052;5.238;2022-11-23T10:51:15;8.00;;;1.30;;
68284;SDS011;55114;52.052;5.238;2022-11-23T10:53:50;10.75;;;1.80;;
68284;SDS011;55114;52.052;5.238;2022-11-23T10:56:26;7.60;;;1.17;;
68284;SDS011;55114;52.052;5.238;2022-11-23T10:58:53;10.27;;;1.88;;
68284;SDS011;55114;52.052;5.238;2022-11-23T11:01:22;8.07;;;1.50;;
68284;SDS011;55114;52.052;5.238;2022-11-23T11:03:51;6.13;;;1.30;;
68284;SDS011;55114;52.052;5.238;2022-11-23T11:06:26;8.57;;;1.35;;
68284;SDS011;55114;52.052;5.238;2022-11-23T11:08:57;6.33;;;1.33;;
68284;SDS011;55114;52.052;5.238;2022-11-23T11:11:36;7.72;;;1.50;;
68284;SDS011;55114;52.052;5.238;2022-11-23T11:14:05;12.13;;;1.48;;
68284;SDS011;55114;52.052;5.238;2022-11-23T11:16:34;9.43;;;2.08;;
68284;SDS011;55114;52.052;5.238;2022-11-23T11:21:49;8.43;;;1.40;;
68284;SDS011;55114;52.052;5.238;2022-11-23T11:24:17;7.53;;;1.17;;
68284;SDS011;55114;52.052;5.238;2022-11-23T11:27:05;9.85;;;1.65;;
68284;SDS011;55114;52.052;5.238;2022-11-23T11:32:21;10.20;;;1.45;;
68284;SDS011;55114;52.052;5.238;2022-11-23T11:35:02;8.50;;;1.23;;
68284;SDS011;55114;52.052;5.238;2022-11-23T11:37:45;6.80;;;1.30;;
68284;SDS011;55114;52.052;5.238;2022-11-23T11:42:44;10.25;;;1.60;;
68284;SDS011;55114;52.052;5.238;2022-11-23T11:45:18;5.18;;;1.10;;
68284;SDS011;55114;52.052;5.238;2022-11-23T11:47:54;4.57;;;1.10;;
68284;SDS011;55114;52.052;5.238;2022-11-23T11:50:28;7.65;;;1.33;;
68284;SDS011;55114;52.052;5.238;2022-11-23T11:53:05;6.50;;;1.40;;
68284;SDS011;55114;52.052;5.238;2022-11-23T11:58:12;6.70;;;1.40;;
68284;SDS011;55114;52.052;5.238;2022-11-23T12:00:41;8.53;;;1.30;;
68284;SDS011;55114;52.052;5.238;2022-11-23T12:05:53;7.28;;;1.27;;
68284;SDS011;55114;52.052;5.238;2022-11-23T12:08:28;6.45;;;1.17;;
68284;SDS011;55114;52.052;5.238;2022-11-23T12:10:58;5.95;;;1.38;;
68284;SDS011;55114;52.052;5.238;2022-11-23T12:13:34;6.40;;;1.20;;
68284;SDS011;55114;52.052;5.238;2022-11-23T12:16:09;8.52;;;1.30;;
68284;SDS011;55114;52.052;5.238;2022-11-23T12:18:51;4.50;;;1.05;;
68284;SDS011;55114;52.052;5.238;2022-11-23T12:26:56;11.23;;;1.23;;
68284;SDS011;55114;52.052;5.238;2022-11-23T12:32:29;3.85;;;1.00;;
68284;SDS011;55114;52.052;5.238;2022-11-23T12:42:48;4.75;;;1.00;;
68284;SDS011;55114;52.052;5.238;2022-11-23T12:46:03;5.13;;;1.10;;
68284;SDS011;55114;52.052;5.238;2022-11-23T12:51:02;5.35;;;1.10;;
68284;SDS011;55114;52.052;5.238;2022-11-23T12:56:44;7.72;;;0.88;;
68284;SDS011;55114;52.052;5.238;2022-11-23T12:59:09;6.38;;;1.10;;
68284;SDS011;55114;52.052;5.238;2022-11-23T13:02:00;8.43;;;1.13;;
68284;SDS011;55114;52.052;5.238;2022-11-23T13:15:15;3.63;;;0.75;;
68284;SDS011;55114;52.052;5.238;2022-11-23T13:18:04;7.05;;;1.05;;
68284;SDS011;55114;52.052;5.238;2022-11-23T13:23:25;4.95;;;0.98;;
68284;SDS011;55114;52.052;5.238;2022-11-23T13:28:39;4.10;;;0.88;;
68284;SDS011;55114;52.052;5.238;2022-11-23T13:33:43;6.33;;;1.03;;
68284;SDS011;55114;52.052;5.238;2022-11-23T13:36:12;4.75;;;0.82;;
68284;SDS011;55114;52.052;5.238;2022-11-23T13:38:45;6.03;;;0.90;;
68284;SDS011;55114;52.052;5.238;2022-11-23T13:46:40;3.67;;;0.70;;
68284;SDS011;55114;52.052;5.238;2022-11-23T13:49:27;4.53;;;1.10;;
68284;SDS011;55114;52.052;5.238;2022-11-23T13:52:22;5.50;;;1.13;;
68284;SDS011;55114;52.052;5.238;2022-11-23T13:57:20;4.10;;;0.88;;
68284;SDS011;55114;52.052;5.238;2022-11-23T13:59:47;5.63;;;0.80;;
68284;SDS011;55114;52.052;5.238;2022-11-23T14:04:43;6.05;;;0.80;;
68284;SDS011;55114;52.052;5.238;2022-11-23T14:10:00;6.13;;;0.90;;
68284;SDS011;55114;52.052;5.238;2022-11-23T14:12:36;5.57;;;1.10;;
68284;SDS011;55114;52.052;5.238;2022-11-23T14:15:06;5.47;;;1.33;;
68284;SDS011;55114;52.052;5.238;2022-11-23T14:25:31;4.40;;;0.90;;
68284;SDS011;55114;52.052;5.238;2022-11-23T14:36:12;4.32;;;0.90;;
68284;SDS011;55114;52.052;5.238;2022-11-23T14:41:13;3.97;;;1.00;;
68284;SDS011;55114;52.052;5.238;2022-11-23T14:43:43;6.63;;;1.35;;
68284;SDS011;55114;52.052;5.238;2022-11-23T14:46:15;5.10;;;0.90;;
68284;SDS011;55114;52.052;5.238;2022-11-23T14:48:45;6.05;;;1.17;;
68284;SDS011;55114;52.052;5.238;2022-11-23T14:51:15;3.87;;;0.80;;
68284;SDS011;55114;52.052;5.238;2022-11-23T14:53:50;9.23;;;1.08;;
68284;SDS011;55114;52.052;5.238;2022-11-23T14:59:02;5.88;;;0.90;;
68284;SDS011;55114;52.052;5.238;2022-11-23T15:01:30;5.45;;;1.30;;
68284;SDS011;55114;52.052;5.238;2022-11-23T15:03:59;4.53;;;1.17;;
68284;SDS011;55114;52.052;5.238;2022-11-23T15:06:30;5.82;;;0.98;;
68284;SDS011;55114;52.052;5.238;2022-11-23T15:09:18;4.28;;;1.00;;
68284;SDS011;55114;52.052;5.238;2022-11-23T15:11:50;5.15;;;1.13;;
68284;SDS011;55114;52.052;5.238;2022-11-23T15:14:18;6.35;;;1.40;;
68284;SDS011;55114;52.052;5.238;2022-11-23T15:16:46;7.60;;;1.10;;
68284;SDS011;55114;52.052;5.238;2022-11-23T15:19:18;5.53;;;1.10;;
68284;SDS011;55114;52.052;5.238;2022-11-23T15:21:45;6.57;;;1.15;;
68284;SDS011;55114;52.052;5.238;2022-11-23T15:24:21;5.57;;;1.10;;
68284;SDS011;55114;52.052;5.238;2022-11-23T15:26:49;6.57;;;1.20;;
68284;SDS011;55114;52.052;5.238;2022-11-23T15:31:55;8.30;;;1.40;;
68284;SDS011;55114;52.052;5.238;2022-11-23T15:34:43;4.10;;;1.02;;
68284;SDS011;55114;52.052;5.238;2022-11-23T15:37:10;5.03;;;1.10;;
68284;SDS011;55114;52.052;5.238;2022-11-23T15:39:38;2.90;;;1.00;;
68284;SDS011;55114;52.052;5.238;2022-11-23T15:42:05;3.83;;;0.97;;
68284;SDS011;55114;52.052;5.238;2022-11-23T15:44:35;6.43;;;1.17;;
68284;SDS011;55114;52.052;5.238;2022-11-23T15:47:04;5.97;;;1.00;;
68284;SDS011;55114;52.052;5.238;2022-11-23T15:49:36;4.47;;;0.95;;
68284;SDS011;55114;52.052;5.238;2022-11-23T15:52:05;4.03;;;1.20;;
68284;SDS011;55114;52.052;5.238;2022-11-23T15:54:33;4.93;;;1.00;;
68284;SDS011;55114;52.052;5.238;2022-11-23T15:57:05;4.82;;;0.82;;
68284;SDS011;55114;52.052;5.238;2022-11-23T15:59:46;6.22;;;1.10;;
68284;SDS011;55114;52.052;5.238;2022-11-23T16:02:16;6.28;;;1.13;;
68284;SDS011;55114;52.052;5.238;2022-11-23T16:04:44;7.03;;;2.28;;
68284;SDS011;55114;52.052;5.238;2022-11-23T16:07:16;6.77;;;2.10;;
68284;SDS011;55114;52.052;5.238;2022-11-23T16:09:51;13.20;;;4.03;;
68284;SDS011;55114;52.052;5.238;2022-11-23T16:12:30;9.23;;;2.58;;
68284;SDS011;55114;52.052;5.238;2022-11-23T16:17:52;11.75;;;3.17;;
68284;SDS011;55114;52.052;5.238;2022-11-23T16:20:24;10.07;;;3.20;;
68284;SDS011;55114;52.052;5.238;2022-11-23T16:22:52;10.38;;;3.83;;
68284;SDS011;55114;52.052;5.238;2022-11-23T16:25:29;8.02;;;2.45;;
68284;SDS011;55114;52.052;5.238;2022-11-23T16:30:35;7.75;;;2.80;;
68284;SDS011;55114;52.052;5.238;2022-11-23T16:33:03;5.27;;;2.10;;
68284;SDS011;55114;52.052;5.238;2022-11-23T16:35:31;8.30;;;2.33;;
68284;SDS011;55114;52.052;5.238;2022-11-23T16:37:58;7.25;;;2.50;;
68284;SDS011;55114;52.052;5.238;2022-11-23T16:40:26;11.02;;;3.45;;
68284;SDS011;55114;52.052;5.238;2022-11-23T16:42:53;8.25;;;2.40;;
68284;SDS011;55114;52.052;5.238;2022-11-23T16:45:21;5.30;;;2.30;;
68284;SDS011;55114;52.052;5.238;2022-11-23T16:47:50;8.00;;;2.50;;
68284;SDS011;55114;52.052;5.238;2022-11-23T16:50:30;7.18;;;2.88;;
68284;SDS011;55114;52.052;5.238;2022-11-23T16:53:04;9.30;;;3.00;;
68284;SDS011;55114;52.052;5.238;2022-11-23T16:55:38;9.45;;;3.38;;
68284;SDS011;55114;52.052;5.238;2022-11-23T16:58:09;7.30;;;3.43;;
68284;SDS011;55114;52.052;5.238;2022-11-23T17:00:40;7.85;;;3.58;;
68284;SDS011;55114;52.052;5.238;2022-11-23T17:03:17;10.95;;;3.65;;
68284;SDS011;55114;52.052;5.238;2022-11-23T17:05:44;10.07;;;3.50;;
68284;SDS011;55114;52.052;5.238;2022-11-23T17:08:12;7.57;;;3.72;;
68284;SDS011;55114;52.052;5.238;2022-11-23T17:10:47;9.20;;;3.60;;
68284;SDS011;55114;52.052;5.238;2022-11-23T17:13:21;9.82;;;3.67;;